Time;durP1;ratioP1;P1;durP2;ratioP2;P2;SDS_P1;SDS_P2;PMS_P1;PMS_P2;Temp;Humidity;BMP_temperature;BMP_pressure;BME280_temperature;BME280_humidity;BME280_pressure;Samples;Min_cycle;Max_cycle;Signal;HPM_P1;HPM_P2
2022/08/06 00:00:46;;;;;;;18.80;6.47;;;;;;;;;;10451166;28;20025;-74
2022/08/06 00:05:47;;;;;;;4.85;3.60;;;;;;;;;;10467424;28;20100;-74
2022/08/06 00:10:47;;;;;;;4.63;3.70;;;;;;;;;;10451551;28;20068;-74
2022/08/06 00:15:48;;;;;;;4.55;4.05;;;;;;;;;;10479178;28;20453;-74
2022/08/06 00:20:48;;;;;;;5.78;3.85;;;;;;;;;;10450001;28;20028;-74
2022/08/06 00:25:48;;;;;;;7.45;4.63;;;;;;;;;;10472627;28;20079;-73
2022/08/06 00:30:48;;;;;;;9.65;4.18;;;;;;;;;;10479686;28;20032;-74
2022/08/06 00:35:49;;;;;;;7.25;3.97;;;;;;;;;;10476384;28;20144;-75
2022/08/06 00:40:49;;;;;;;4.73;4.20;;;;;;;;;;10476916;28;20450;-74
2022/08/06 00:45:49;;;;;;;4.77;3.83;;;;;;;;;;10475461;28;20021;-74
2022/08/06 00:50:49;;;;;;;5.28;4.28;;;;;;;;;;10474595;28;20025;-74
2022/08/06 00:55:50;;;;;;;5.70;4.60;;;;;;;;;;10473710;28;20025;-74
2022/08/06 01:00:50;;;;;;;10.98;4.57;;;;;;;;;;10480448;28;20013;-74
2022/08/06 01:05:50;;;;;;;7.53;4.60;;;;;;;;;;10456430;28;20021;-75
2022/08/06 01:10:50;;;;;;;6.63;4.68;;;;;;;;;;10457709;28;20041;-74
2022/08/06 01:16:17;;;;;;;7.90;4.93;;;;;;;;;;10473368;28;20414;-75
2022/08/06 01:21:17;;;;;;;7.72;5.00;;;;;;;;;;10441605;28;20119;-74
2022/08/06 01:26:36;;;;;;;5.50;4.65;;;;;;;;;;10457144;28;20228;-74
2022/08/06 01:31:43;;;;;;;5.57;4.43;;;;;;;;;;10470455;28;20028;-74
2022/08/06 01:36:45;;;;;;;6.13;4.68;;;;;;;;;;10456912;28;20491;-74
2022/08/06 01:41:48;;;;;;;4.97;4.30;;;;;;;;;;10455294;28;20013;-74
2022/08/06 01:46:53;;;;;;;6.63;4.53;;;;;;;;;;10475904;28;20027;-74
2022/08/06 01:51:55;;;;;;;6.03;4.38;;;;;;;;;;10481066;28;20009;-75
2022/08/06 01:56:57;;;;;;;6.25;5.00;;;;;;;;;;10470370;28;20112;-75
2022/08/06 02:01:58;;;;;;;5.13;4.22;;;;;;;;;;10454575;28;20506;-74
2022/08/06 02:06:58;;;;;;;6.95;4.75;;;;;;;;;;10453067;28;20131;-76
2022/08/06 02:12:01;;;;;;;6.97;4.87;;;;;;;;;;10453860;28;20460;-75
2022/08/06 02:17:03;;;;;;;4.65;4.13;;;;;;;;;;10447504;28;20286;-75
2022/08/06 02:22:03;;;;;;;5.75;4.43;;;;;;;;;;10471091;28;20032;-75
2022/08/06 02:27:04;;;;;;;5.85;4.57;;;;;;;;;;10453187;28;20024;-75
2022/08/06 02:32:04;;;;;;;5.53;4.32;;;;;;;;;;10471117;28;20036;-75
2022/08/06 02:37:15;;;;;;;5.60;4.40;;;;;;;;;;10473239;28;20021;-75
2022/08/06 02:42:15;;;;;;;8.48;5.18;;;;;;;;;;10471322;28;20020;-75
2022/08/06 02:47:21;;;;;;;7.13;4.75;;;;;;;;;;10469177;28;20021;-74
2022/08/06 02:52:23;;;;;;;6.75;5.18;;;;;;;;;;10452382;28;20051;-74
2022/08/06 02:57:28;;;;;;;7.05;5.07;;;;;;;;;;10482787;28;20027;-74
2022/08/06 03:02:29;;;;;;;7.50;5.53;;;;;;;;;;10452154;28;20025;-75
2022/08/06 03:07:31;;;;;;;7.35;5.20;;;;;;;;;;10473788;28;20028;-76
2022/08/06 03:12:33;;;;;;;9.82;5.88;;;;;;;;;;10469697;28;20057;-75
2022/08/06 03:17:34;;;;;;;8.77;5.03;;;;;;;;;;10468778;28;20119;-75
2022/08/06 03:22:36;;;;;;;10.45;5.30;;;;;;;;;;10469491;28;20463;-74
2022/08/06 03:27:37;;;;;;;9.43;6.07;;;;;;;;;;10472236;28;20020;-74
2022/08/06 03:32:37;;;;;;;11.27;6.25;;;;;;;;;;10467727;28;20491;-74
2022/08/06 03:37:38;;;;;;;9.13;6.35;;;;;;;;;;10482959;28;20017;-73
2022/08/06 03:42:39;;;;;;;9.27;6.22;;;;;;;;;;10451396;28;20090;-72
2022/08/06 03:47:46;;;;;;;8.50;6.35;;;;;;;;;;10436782;28;20402;-73
2022/08/06 03:52:48;;;;;;;20.38;7.25;;;;;;;;;;10468087;28;20025;-74
2022/08/06 03:57:50;;;;;;;10.70;7.22;;;;;;;;;;10480004;28;20032;-74
2022/08/06 04:02:52;;;;;;;15.52;7.45;;;;;;;;;;10464188;28;20025;-73
2022/08/06 04:07:55;;;;;;;10.88;6.30;;;;;;;;;;10485241;28;20542;-73
2022/08/06 04:12:55;;;;;;;9.82;6.32;;;;;;;;;;10484123;28;20051;-74
2022/08/06 04:17:56;;;;;;;13.23;5.60;;;;;;;;;;10479851;28;20033;-74
2022/08/06 04:22:56;;;;;;;9.20;6.73;;;;;;;;;;10481141;28;20028;-74
2022/08/06 04:27:57;;;;;;;12.02;7.00;;;;;;;;;;10486392;28;20342;-74
2022/08/06 04:32:57;;;;;;;10.00;6.50;;;;;;;;;;10480465;28;20044;-74
2022/08/06 04:37:58;;;;;;;13.48;7.03;;;;;;;;;;10480788;28;20021;-74
2022/08/06 04:42:59;;;;;;;16.40;6.82;;;;;;;;;;10484594;28;20103;-73
2022/08/06 04:48:00;;;;;;;10.30;6.40;;;;;;;;;;10464398;28;20518;-74
2022/08/06 04:53:08;;;;;;;13.15;7.60;;;;;;;;;;10481493;28;20021;-75
2022/08/06 04:58:08;;;;;;;;;;;;;;;;;;10481616;28;20028;-73
2022/08/06 05:03:08;;;;;;;10.05;6.78;;;;;;;;;;10473680;28;19911;-74
2022/08/06 05:08:10;;;;;;;11.45;6.13;;;;;;;;;;10480413;28;20072;-74
2022/08/06 05:13:12;;;;;;;11.55;7.05;;;;;;;;;;10477373;28;20033;-72
2022/08/06 05:18:14;;;;;;;11.85;7.05;;;;;;;;;;10474351;28;20017;-74
2022/08/06 05:23:17;;;;;;;11.30;6.03;;;;;;;;;;10474120;28;20096;-73
2022/08/06 05:28:17;;;;;;;11.65;6.82;;;;;;;;;;10470012;28;20032;-73
2022/08/06 05:33:25;;;;;;;8.07;5.83;;;;;;;;;;10439469;28;20032;-76
2022/08/06 05:38:28;;;;;;;11.02;5.90;;;;;;;;;;10457572;28;20278;-74
2022/08/06 05:43:29;;;;;;;10.15;5.57;;;;;;;;;;10442646;28;20025;-75
2022/08/06 05:48:31;;;;;;;12.02;5.75;;;;;;;;;;10454968;28;20013;-73
2022/08/06 05:53:38;;;;;;;10.88;5.38;;;;;;;;;;10478615;28;20031;-73
2022/08/06 05:59:01;;;;;;;9.68;5.40;;;;;;;;;;10458907;28;20363;-74
2022/08/06 06:04:02;;;;;;;10.10;5.50;;;;;;;;;;10472185;28;20027;-74
2022/08/06 06:09:02;;;;;;;8.65;5.55;;;;;;;;;;10469114;28;20132;-73
2022/08/06 06:14:02;;;;;;;7.95;5.03;;;;;;;;;;10481350;28;20511;-74
2022/08/06 06:19:06;;;;;;;8.15;5.20;;;;;;;;;;10455227;28;20453;-73
2022/08/06 06:24:20;;;;;;;8.57;4.60;;;;;;;;;;10478258;28;20028;-74
2022/08/06 06:29:32;;;;;;;8.93;4.38;;;;;;;;;;10489744;28;20044;-73
2022/08/06 06:34:48;;;;;;;7.60;4.78;;;;;;;;;;10440845;28;20017;-73
2022/08/06 06:40:02;;;;;;;11.23;4.50;;;;;;;;;;10453952;28;20394;-73
2022/08/06 06:45:05;;;;;;;6.57;4.40;;;;;;;;;;10452608;28;20505;-74
2022/08/06 06:50:11;;;;;;;7.20;4.28;;;;;;;;;;10453288;28;20025;-73
2022/08/06 06:55:11;;;;;;;6.73;3.90;;;;;;;;;;10475618;28;20021;-75
2022/08/06 07:00:12;;;;;;;16.13;4.00;;;;;;;;;;10452404;28;20457;-74
2022/08/06 07:05:13;;;;;;;5.43;4.03;;;;;;;;;;10453047;28;20021;-74
2022/08/06 07:10:15;;;;;;;7.13;3.95;;;;;;;;;;10470669;28;20049;-74
2022/08/06 07:15:17;;;;;;;6.20;3.90;;;;;;;;;;10452523;28;20040;-74
2022/08/06 07:20:21;;;;;;;6.63;3.38;;;;;;;;;;10470281;28;20036;-74
2022/08/06 07:25:21;;;;;;;8.88;3.85;;;;;;;;;;10467735;28;20017;-73
2022/08/06 07:30:23;;;;;;;13.57;3.80;;;;;;;;;;10470553;28;20449;-74
2022/08/06 07:35:23;;;;;;;7.70;4.00;;;;;;;;;;10451492;28;20093;-74
2022/08/06 07:40:30;;;;;;;7.93;3.58;;;;;;;;;;10451299;28;20032;-73
2022/08/06 07:45:32;;;;;;;9.60;3.55;;;;;;;;;;10452083;28;20448;-74
2022/08/06 07:50:32;;;;;;;6.88;2.92;;;;;;;;;;10450402;28;20093;-73
2022/08/06 07:55:32;;;;;;;11.73;3.47;;;;;;;;;;10435502;28;20029;-73
2022/08/06 08:00:34;;;;;;;7.82;3.03;;;;;;;;;;10451604;28;20423;-74
2022/08/06 08:10:54;;;;;;;4.55;3.08;;;;;;;;;;10450986;28;20457;-74
2022/08/06 08:15:56;;;;;;;3.15;2.85;;;;;;;;;;10450644;28;20041;-74
2022/08/06 08:20:57;;;;;;;6.45;3.53;;;;;;;;;;10449295;28;20018;-74
2022/08/06 08:25:59;;;;;;;5.97;2.95;;;;;;;;;;10450980;28;20032;-73
2022/08/06 08:31:01;;;;;;;5.47;3.00;;;;;;;;;;10451545;28;20025;-73
2022/08/06 08:36:01;;;;;;;4.32;2.42;;;;;;;;;;10441309;28;20052;-76
2022/08/06 08:41:15;;;;;;;3.50;2.30;;;;;;;;;;10451095;28;20052;-74
2022/08/06 08:46:15;;;;;;;6.90;2.58;;;;;;;;;;10452175;28;20447;-73
2022/08/06 08:51:16;;;;;;;1.63;1.33;;;;;;;;;;10457813;28;20028;-73
2022/08/06 08:56:16;;;;;;;5.15;1.60;;;;;;;;;;10488978;28;20166;-74
2022/08/06 09:01:18;;;;;;;6.13;1.98;;;;;;;;;;10480714;28;20025;-73
2022/08/06 09:06:18;;;;;;;6.80;1.55;;;;;;;;;;10456663;28;20487;-75
2022/08/06 09:11:19;;;;;;;3.23;1.97;;;;;;;;;;10453391;28;20090;-75
2022/08/06 09:16:19;;;;;;;4.35;2.13;;;;;;;;;;10456413;28;20292;-74
2022/08/06 09:21:19;;;;;;;2.33;1.70;;;;;;;;;;10482683;28;20120;-73
2022/08/06 09:26:20;;;;;;;3.53;1.50;;;;;;;;;;10456985;28;20029;-73
2022/08/06 09:31:21;;;;;;;4.95;1.92;;;;;;;;;;10455786;28;20422;-74
2022/08/06 09:36:21;;;;;;;3.75;1.85;;;;;;;;;;10473060;28;20471;-74
2022/08/06 09:41:22;;;;;;;7.45;1.52;;;;;;;;;;10450083;28;20032;-73
2022/08/06 09:46:36;;;;;;;6.55;1.70;;;;;;;;;;10472318;28;20059;-75
2022/08/06 09:51:37;;;;;;;4.93;1.40;;;;;;;;;;10482975;28;20036;-74
2022/08/06 09:56:37;;;;;;;2.20;1.30;;;;;;;;;;10457031;28;20407;-74
2022/08/06 10:01:39;;;;;;;3.50;2.00;;;;;;;;;;10486369;28;20074;-74
2022/08/06 10:06:59;;;;;;;4.13;1.55;;;;;;;;;;10473574;28;20036;-73
2022/08/06 10:12:00;;;;;;;1.67;1.58;;;;;;;;;;10440308;28;20052;-74
2022/08/06 10:17:11;;;;;;;3.33;1.30;;;;;;;;;;10453684;28;20025;-73
2022/08/06 10:22:18;;;;;;;1.40;1.27;;;;;;;;;;10477591;28;20017;-74
2022/08/06 10:27:23;;;;;;;2.40;1.45;;;;;;;;;;10462934;28;20032;-74
2022/08/06 10:32:23;;;;;;;2.30;1.42;;;;;;;;;;10444446;28;20027;-74
2022/08/06 10:37:23;;;;;;;1.23;1.20;;;;;;;;;;10485057;28;20445;-75
2022/08/06 10:42:24;;;;;;;2.77;1.60;;;;;;;;;;10457303;28;20048;-74
2022/08/06 10:47:27;;;;;;;3.10;1.20;;;;;;;;;;10475896;28;20426;-73
2022/08/06 10:52:27;;;;;;;4.60;1.60;;;;;;;;;;10453549;28;20021;-75
2022/08/06 10:57:28;;;;;;;3.45;1.77;;;;;;;;;;10478858;28;20114;-74
2022/08/06 11:02:32;;;;;;;2.73;1.83;;;;;;;;;;10453089;28;20028;-74
2022/08/06 11:07:42;;;;;;;9.70;1.73;;;;;;;;;;10469601;28;20039;-74
2022/08/06 11:12:49;;;;;;;2.15;1.25;;;;;;;;;;10487111;28;20036;-73
2022/08/06 11:18:02;;;;;;;2.47;1.75;;;;;;;;;;10472963;28;20024;-73
2022/08/06 11:23:04;;;;;;;1.73;1.63;;;;;;;;;;10479688;28;20126;-73
2022/08/06 11:28:06;;;;;;;3.55;1.92;;;;;;;;;;10469087;28;20028;-75
2022/08/06 11:33:07;;;;;;;2.70;2.10;;;;;;;;;;10466690;28;20028;-74
2022/08/06 11:38:08;;;;;;;5.20;1.90;;;;;;;;;;10450659;28;20384;-73
2022/08/06 11:43:08;;;;;;;2.63;2.20;;;;;;;;;;10450467;28;20021;-75
2022/08/06 11:48:08;;;;;;;3.35;2.75;;;;;;;;;;10438694;28;20510;-73
2022/08/06 11:53:09;;;;;;;5.68;2.08;;;;;;;;;;10449671;28;20442;-73
2022/08/06 11:58:19;;;;;;;4.53;2.88;;;;;;;;;;10449657;28;20129;-73
2022/08/06 12:03:35;;;;;;;5.18;2.75;;;;;;;;;;10465181;28;20372;-73
2022/08/06 12:08:35;;;;;;;4.80;2.92;;;;;;;;;;10471796;28;20103;-74
2022/08/06 12:13:39;;;;;;;6.72;2.92;;;;;;;;;;10450105;28;20029;-74
2022/08/06 12:18:40;;;;;;;5.25;2.58;;;;;;;;;;10481566;28;20032;-74
2022/08/06 12:23:41;;;;;;;4.45;2.78;;;;;;;;;;10458555;28;20032;-74
2022/08/06 12:28:42;;;;;;;3.92;2.60;;;;;;;;;;10475987;28;20029;-74
2022/08/06 12:33:42;;;;;;;3.53;3.00;;;;;;;;;;10476809;28;20024;-74
2022/08/06 12:38:52;;;;;;;5.67;3.23;;;;;;;;;;10457906;28;20203;-75
2022/08/06 12:43:53;;;;;;;7.40;3.65;;;;;;;;;;10475005;28;20032;-74
2022/08/06 12:48:54;;;;;;;6.18;3.10;;;;;;;;;;10476857;28;20066;-74
2022/08/06 12:53:59;;;;;;;6.93;2.75;;;;;;;;;;10474892;28;20083;-74
2022/08/06 12:59:01;;;;;;;3.90;2.78;;;;;;;;;;10477267;28;20510;-74
2022/08/06 13:04:03;;;;;;;6.97;2.70;;;;;;;;;;10457951;28;20028;-75
2022/08/06 13:09:04;;;;;;;2.80;2.53;;;;;;;;;;10472789;28;20063;-74
2022/08/06 13:14:09;;;;;;;15.37;3.30;;;;;;;;;;10478081;28;20033;-75
2022/08/06 13:19:11;;;;;;;5.07;2.97;;;;;;;;;;10483142;28;20016;-74
2022/08/06 13:24:12;;;;;;;8.48;3.05;;;;;;;;;;10457133;28;20017;-75
2022/08/06 13:29:14;;;;;;;4.22;2.45;;;;;;;;;;10455584;28;20021;-75
2022/08/06 13:34:15;;;;;;;3.38;2.47;;;;;;;;;;10477316;28;20036;-74
2022/08/06 13:39:16;;;;;;;4.47;2.90;;;;;;;;;;10487161;28;20028;-74
2022/08/06 13:44:30;;;;;;;6.03;3.45;;;;;;;;;;10472441;28;20017;-75
2022/08/06 13:49:31;;;;;;;7.47;3.72;;;;;;;;;;10482654;28;20017;-74
2022/08/06 13:54:31;;;;;;;6.65;3.35;;;;;;;;;;10469936;28;20039;-74
2022/08/06 13:59:31;;;;;;;6.90;3.47;;;;;;;;;;10471485;28;20013;-74
2022/08/06 14:04:32;;;;;;;3.93;2.97;;;;;;;;;;10474681;28;20049;-74
2022/08/06 14:09:32;;;;;;;3.78;2.90;;;;;;;;;;10473086;28;20064;-74
2022/08/06 14:14:33;;;;;;;6.47;2.83;;;;;;;;;;10455396;28;20094;-75
2022/08/06 14:19:33;;;;;;;3.75;2.80;;;;;;;;;;10471127;28;20443;-74
2022/08/06 14:24:33;;;;;;;7.13;3.33;;;;;;;;;;10473633;28;20019;-75
2022/08/06 14:29:35;;;;;;;4.30;2.88;;;;;;;;;;10454622;28;20041;-72
2022/08/06 14:34:35;;;;;;;5.38;3.20;;;;;;;;;;10470486;28;20069;-74
2022/08/06 14:39:35;;;;;;;3.27;2.87;;;;;;;;;;10454979;28;20048;-74
2022/08/06 14:44:54;;;;;;;7.63;3.58;;;;;;;;;;10483577;28;20028;-73
2022/08/06 14:49:55;;;;;;;6.32;2.90;;;;;;;;;;10481836;28;20029;-73
2022/08/06 14:54:55;;;;;;;12.13;2.80;;;;;;;;;;10457652;28;20035;-73
2022/08/06 14:59:55;;;;;;;4.32;3.40;;;;;;;;;;10483961;28;20096;-74
2022/08/06 15:04:55;;;;;;;3.35;3.05;;;;;;;;;;10471480;28;20392;-73
2022/08/06 15:09:56;;;;;;;3.63;3.33;;;;;;;;;;10440225;28;20132;-74
2022/08/06 15:14:56;;;;;;;4.57;3.53;;;;;;;;;;10452866;28;20029;-73
2022/08/06 15:19:56;;;;;;;5.53;4.10;;;;;;;;;;10473538;28;20025;-74
2022/08/06 15:24:56;;;;;;;7.22;3.83;;;;;;;;;;10470824;28;20020;-72
2022/08/06 15:29:58;;;;;;;4.35;3.67;;;;;;;;;;10468854;28;20032;-75
2022/08/06 15:34:58;;;;;;;7.75;3.67;;;;;;;;;;10447655;28;20419;-73
2022/08/06 15:39:58;;;;;;;6.72;4.82;;;;;;;;;;10469422;28;20109;-73
2022/08/06 15:44:59;;;;;;;5.85;4.40;;;;;;;;;;10468109;28;20040;-73
2022/08/06 15:50:00;;;;;;;6.38;3.47;;;;;;;;;;10467582;28;20017;-74
2022/08/06 15:55:01;;;;;;;6.10;3.72;;;;;;;;;;10470362;28;20020;-74
2022/08/06 16:00:01;;;;;;;5.15;3.50;;;;;;;;;;10468604;28;20099;-74
2022/08/06 16:05:01;;;;;;;8.43;4.30;;;;;;;;;;10467655;28;20128;-74
2022/08/06 16:10:02;;;;;;;12.93;4.50;;;;;;;;;;10467428;28;20132;-73
2022/08/06 16:15:02;;;;;;;7.57;4.30;;;;;;;;;;10467997;28;20024;-75
2022/08/06 16:20:03;;;;;;;9.18;3.88;;;;;;;;;;10451153;28;20645;-74
2022/08/06 16:25:04;;;;;;;7.15;4.20;;;;;;;;;;10468273;28;20108;-74
2022/08/06 16:30:04;;;;;;;4.53;3.97;;;;;;;;;;10469731;28;20055;-74
2022/08/06 16:35:05;;;;;;;5.55;4.93;;;;;;;;;;10482127;28;20176;-74
2022/08/06 16:40:06;;;;;;;5.20;4.22;;;;;;;;;;10458356;28;20025;-75
2022/08/06 16:45:06;;;;;;;6.70;4.60;;;;;;;;;;10449614;28;20021;-74
2022/08/06 16:50:07;;;;;;;6.93;4.80;;;;;;;;;;10450553;28;20017;-74
2022/08/06 16:55:08;;;;;;;7.90;4.15;;;;;;;;;;10466586;28;20017;-80
2022/08/06 17:00:10;;;;;;;11.63;4.38;;;;;;;;;;10450670;28;20021;-74
2022/08/06 17:05:12;;;;;;;6.13;4.57;;;;;;;;;;10449337;28;20096;-75
2022/08/06 17:10:17;;;;;;;4.60;4.03;;;;;;;;;;10456835;28;20040;-72
2022/08/06 17:15:17;;;;;;;7.68;4.43;;;;;;;;;;10481285;28;20032;-74
2022/08/06 17:20:18;;;;;;;9.25;4.95;;;;;;;;;;10462029;28;20013;-73
2022/08/06 17:25:18;;;;;;;6.70;4.43;;;;;;;;;;10486179;28;20020;-74
2022/08/06 17:30:21;;;;;;;6.75;4.57;;;;;;;;;;10473652;28;20049;-74
2022/08/06 17:35:21;;;;;;;8.30;5.05;;;;;;;;;;10455613;28;20393;-73
2022/08/06 17:40:24;;;;;;;8.80;5.50;;;;;;;;;;10478234;28;20048;-74
2022/08/06 17:45:24;;;;;;;7.45;5.32;;;;;;;;;;10477802;28;20106;-75
2022/08/06 17:50:24;;;;;;;8.33;4.93;;;;;;;;;;10473081;28;20070;-74
2022/08/06 17:55:25;;;;;;;7.63;5.72;;;;;;;;;;10454713;28;20053;-73
2022/08/06 18:00:25;;;;;;;11.07;5.80;;;;;;;;;;10456313;28;20017;-74
2022/08/06 18:05:25;;;;;;;17.08;5.97;;;;;;;;;;10473022;28;20084;-74
2022/08/06 18:10:26;;;;;;;12.88;6.15;;;;;;;;;;10438486;28;20477;-75
2022/08/06 18:15:27;;;;;;;11.80;5.07;;;;;;;;;;10486359;28;20526;-75
2022/08/06 18:20:29;;;;;;;12.25;5.32;;;;;;;;;;10458997;28;20056;-74
2022/08/06 18:25:32;;;;;;;11.73;6.32;;;;;;;;;;10437527;28;20415;-73
2022/08/06 18:30:32;;;;;;;9.73;5.55;;;;;;;;;;10471948;28;20068;-74
2022/08/06 18:35:32;;;;;;;7.65;5.85;;;;;;;;;;10477266;28;20057;-75
2022/08/06 18:40:33;;;;;;;10.73;6.45;;;;;;;;;;10484033;28;20489;-73
2022/08/06 18:45:33;;;;;;;11.38;6.88;;;;;;;;;;10468123;28;20036;-74
2022/08/06 18:50:33;;;;;;;12.63;5.80;;;;;;;;;;10459118;28;20079;-75
2022/08/06 18:55:33;;;;;;;14.07;6.22;;;;;;;;;;10453652;28;20032;-75
2022/08/06 19:00:36;;;;;;;9.35;6.13;;;;;;;;;;10470351;28;20028;-75
2022/08/06 19:05:37;;;;;;;11.50;7.03;;;;;;;;;;10452064;28;20406;-75
2022/08/06 19:10:37;;;;;;;11.57;6.03;;;;;;;;;;10453223;28;20044;-74
2022/08/06 19:15:37;;;;;;;9.55;6.55;;;;;;;;;;10466033;28;20033;-73
2022/08/06 19:20:37;;;;;;;14.50;5.47;;;;;;;;;;10466668;28;20024;-75
2022/08/06 19:25:38;;;;;;;7.05;4.88;;;;;;;;;;10452249;28;20112;-74
2022/08/06 19:30:39;;;;;;;6.18;5.03;;;;;;;;;;10474492;28;20020;-74
2022/08/06 19:35:39;;;;;;;10.63;5.68;;;;;;;;;;10468406;28;20116;-74
2022/08/06 19:40:45;;;;;;;6.72;4.93;;;;;;;;;;10485134;28;20028;-75
2022/08/06 19:45:47;;;;;;;8.52;5.13;;;;;;;;;;10452683;28;20024;-74
2022/08/06 19:50:47;;;;;;;9.15;6.05;;;;;;;;;;10450354;28;20083;-74
2022/08/06 19:55:47;;;;;;;8.30;5.80;;;;;;;;;;10450557;28;20048;-74
2022/08/06 20:00:48;;;;;;;10.63;4.80;;;;;;;;;;10477215;28;20399;-74
2022/08/06 20:05:48;;;;;;;10.20;5.55;;;;;;;;;;10451517;28;20029;-72
2022/08/06 20:10:48;;;;;;;9.80;4.85;;;;;;;;;;10471667;28;20144;-74
2022/08/06 20:15:49;;;;;;;10.07;5.38;;;;;;;;;;10468184;28;20582;-73
2022/08/06 20:20:50;;;;;;;9.00;5.43;;;;;;;;;;10479130;28;20020;-75
2022/08/06 20:25:54;;;;;;;14.63;5.63;;;;;;;;;;10468396;28;20029;-74
2022/08/06 20:30:54;;;;;;;8.52;5.60;;;;;;;;;;10451134;28;20116;-74
2022/08/06 20:35:54;;;;;;;8.32;5.45;;;;;;;;;;10470458;28;20092;-73
2022/08/06 20:40:55;;;;;;;12.33;6.27;;;;;;;;;;10473214;28;20127;-74
2022/08/06 20:45:56;;;;;;;9.38;5.10;;;;;;;;;;10459534;28;20021;-75
2022/08/06 20:50:56;;;;;;;7.43;5.03;;;;;;;;;;10458638;28;20078;-74
2022/08/06 20:55:56;;;;;;;10.02;6.18;;;;;;;;;;10457348;28;20082;-73
2022/08/06 21:00:57;;;;;;;13.68;7.53;;;;;;;;;;10489005;28;20027;-73
2022/08/06 21:05:57;;;;;;;10.10;6.50;;;;;;;;;;10457103;28;20100;-74
2022/08/06 21:10:57;;;;;;;10.45;7.22;;;;;;;;;;10456651;28;20135;-73
2022/08/06 21:15:58;;;;;;;10.10;6.45;;;;;;;;;;10480948;28;20395;-73
2022/08/06 21:20:58;;;;;;;12.48;6.43;;;;;;;;;;10474032;28;20017;-73
2022/08/06 21:25:58;;;;;;;9.27;6.32;;;;;;;;;;10483160;28;20091;-74
2022/08/06 21:30:58;;;;;;;11.80;7.22;;;;;;;;;;10461236;28;20020;-74
2022/08/06 21:35:59;;;;;;;12.57;7.07;;;;;;;;;;10456896;28;20391;-74
2022/08/06 21:41:26;;;;;;;8.00;5.78;;;;;;;;;;10473975;28;20487;-74
2022/08/06 21:46:20;;;;;;;11.02;6.60;;;;;;;;;;10456686;28;20078;-74
2022/08/06 21:51:21;;;;;;;8.82;6.32;;;;;;;;;;10456219;28;20067;-74
2022/08/06 21:56:23;;;;;;;9.98;6.90;;;;;;;;;;10454491;28;20021;-74
2022/08/06 22:01:24;;;;;;;8.43;5.82;;;;;;;;;;10472383;28;20505;-74
2022/08/06 22:06:24;;;;;;;8.40;6.40;;;;;;;;;;10454840;28;20025;-74
2022/08/06 22:11:25;;;;;;;11.35;6.60;;;;;;;;;;10455325;28;20045;-73
2022/08/06 22:16:25;;;;;;;13.52;7.00;;;;;;;;;;10454065;28;20044;-74
2022/08/06 22:21:25;;;;;;;10.30;6.18;;;;;;;;;;10478806;28;20021;-73
2022/08/06 22:26:26;;;;;;;12.33;6.63;;;;;;;;;;10453778;28;20096;-73
2022/08/06 22:31:26;;;;;;;7.30;5.93;;;;;;;;;;10452931;28;20108;-74
2022/08/06 22:36:26;;;;;;;10.02;6.88;;;;;;;;;;10479467;28;20052;-75
2022/08/06 22:41:27;;;;;;;11.17;6.27;;;;;;;;;;10453329;28;20039;-76
2022/08/06 22:46:27;;;;;;;9.30;5.35;;;;;;;;;;10454050;28;20641;-75
2022/08/06 22:51:27;;;;;;;7.43;5.53;;;;;;;;;;10481882;28;20021;-75
2022/08/06 22:56:27;;;;;;;12.05;5.72;;;;;;;;;;10459771;28;20024;-73
2022/08/06 23:01:30;;;;;;;6.82;5.05;;;;;;;;;;10467791;28;20078;-75
2022/08/06 23:06:30;;;;;;;10.02;5.78;;;;;;;;;;10482938;28;20418;-73
2022/08/06 23:11:30;;;;;;;10.07;5.82;;;;;;;;;;10457466;28;20060;-74
2022/08/06 23:16:31;;;;;;;8.17;5.37;;;;;;;;;;10482346;28;20033;-76
2022/08/06 23:21:31;;;;;;;9.80;5.57;;;;;;;;;;10451689;28;20272;-74
2022/08/06 23:26:33;;;;;;;10.00;5.85;;;;;;;;;;10465753;28;20116;-74
2022/08/06 23:31:34;;;;;;;7.05;5.03;;;;;;;;;;10452567;28;20079;-75
2022/08/06 23:36:34;;;;;;;8.07;5.15;;;;;;;;;;10452386;28;20418;-75
2022/08/06 23:41:35;;;;;;;10.20;5.28;;;;;;;;;;10450986;28;20100;-76
2022/08/06 23:46:35;;;;;;;7.60;5.80;;;;;;;;;;10476560;28;20020;-74
2022/08/06 23:51:35;;;;;;;10.83;5.73;;;;;;;;;;10457063;28;20021;-76
2022/08/06 23:56:36;;;;;;;7.85;5.28;;;;;;;;;;10471779;28;20055;-74
